sensor_id;sensor_type;location;lat;lon;timestamp;temperature;humidity
30851;DHT22;17567;48.382;9.102;2023-04-29T00:03:22;11.30;99.90
30851;DHT22;17567;48.382;9.102;2023-04-29T00:08:23;11.40;99.90
30851;DHT22;17567;48.382;9.102;2023-04-29T00:13:24;11.40;99.90
30851;DHT22;17567;48.382;9.102;2023-04-29T00:18:25;11.40;99.90
30851;DHT22;17567;48.382;9.102;2023-04-29T00:23:26;11.40;99.90
30851;DHT22;17567;48.382;9.102;2023-04-29T00:28:26;11.20;99.90
30851;DHT22;17567;48.382;9.102;2023-04-29T00:33:27;11.20;99.90
30851;DHT22;17567;48.382;9.102;2023-04-29T00:38:28;11.20;99.90
30851;DHT22;17567;48.382;9.102;2023-04-29T00:43:28;11.20;99.90
30851;DHT22;17567;48.382;9.102;2023-04-29T00:48:29;11.10;99.90
30851;DHT22;17567;48.382;9.102;2023-04-29T00:53:30;11.30;99.90
30851;DHT22;17567;48.382;9.102;2023-04-29T00:58:31;11.50;99.90
30851;DHT22;17567;48.382;9.102;2023-04-29T01:03:34;11.70;99.90
30851;DHT22;17567;48.382;9.102;2023-04-29T01:13:58;11.90;99.90
30851;DHT22;17567;48.382;9.102;2023-04-29T01:19:05;12.00;99.90
30851;DHT22;17567;48.382;9.102;2023-04-29T01:24:07;12.10;99.90
30851;DHT22;17567;48.382;9.102;2023-04-29T01:29:27;12.10;99.90
30851;DHT22;17567;48.382;9.102;2023-04-29T01:34:33;12.00;99.90
30851;DHT22;17567;48.382;9.102;2023-04-29T01:44:49;12.10;99.90
30851;DHT22;17567;48.382;9.102;2023-04-29T01:49:50;12.10;99.90
30851;DHT22;17567;48.382;9.102;2023-04-29T01:54:51;12.10;99.90
30851;DHT22;17567;48.382;9.102;2023-04-29T01:59:51;12.10;99.90
30851;DHT22;17567;48.382;9.102;2023-04-29T02:04:52;12.10;99.90
30851;DHT22;17567;48.382;9.102;2023-04-29T02:09:52;12.10;99.90
30851;DHT22;17567;48.382;9.102;2023-04-29T02:14:53;12.10;99.90
30851;DHT22;17567;48.382;9.102;2023-04-29T02:19:54;11.90;99.90
30851;DHT22;17567;48.382;9.102;2023-04-29T02:24:54;11.90;99.90
30851;DHT22;17567;48.382;9.102;2023-04-29T02:29:55;11.90;99.90
30851;DHT22;17567;48.382;9.102;2023-04-29T02:34:56;11.90;99.90
30851;DHT22;17567;48.382;9.102;2023-04-29T02:39:57;11.80;99.90
30851;DHT22;17567;48.382;9.102;2023-04-29T02:44:57;11.80;99.90
30851;DHT22;17567;48.382;9.102;2023-04-29T02:49:58;11.60;99.90
30851;DHT22;17567;48.382;9.102;2023-04-29T02:54:59;11.60;99.90
30851;DHT22;17567;48.382;9.102;2023-04-29T02:59:59;11.40;99.90
30851;DHT22;17567;48.382;9.102;2023-04-29T03:05:00;11.30;99.90
30851;DHT22;17567;48.382;9.102;2023-04-29T03:10:00;11.20;99.90
30851;DHT22;17567;48.382;9.102;2023-04-29T03:15:01;11.20;99.90
30851;DHT22;17567;48.382;9.102;2023-04-29T03:20:03;11.10;99.90
30851;DHT22;17567;48.382;9.102;2023-04-29T03:25:04;11.20;99.90
30851;DHT22;17567;48.382;9.102;2023-04-29T03:30:06;11.10;99.90
30851;DHT22;17567;48.382;9.102;2023-04-29T03:35:07;11.10;99.90
30851;DHT22;17567;48.382;9.102;2023-04-29T03:40:08;11.10;99.90
30851;DHT22;17567;48.382;9.102;2023-04-29T03:45:09;11.00;99.90
30851;DHT22;17567;48.382;9.102;2023-04-29T03:50:12;11.10;99.90
30851;DHT22;17567;48.382;9.102;2023-04-29T03:55:13;11.10;99.90
30851;DHT22;17567;48.382;9.102;2023-04-29T04:00:13;11.20;99.90
30851;DHT22;17567;48.382;9.102;2023-04-29T04:05:14;11.10;99.90
30851;DHT22;17567;48.382;9.102;2023-04-29T04:10:15;11.00;99.90
30851;DHT22;17567;48.382;9.102;2023-04-29T04:15:16;11.10;99.90
30851;DHT22;17567;48.382;9.102;2023-04-29T04:20:16;11.10;99.90
30851;DHT22;17567;48.382;9.102;2023-04-29T04:25:17;11.00;99.90
30851;DHT22;17567;48.382;9.102;2023-04-29T04:30:17;11.00;99.90
30851;DHT22;17567;48.382;9.102;2023-04-29T04:35:18;11.00;99.90
30851;DHT22;17567;48.382;9.102;2023-04-29T04:40:19;11.00;99.90
30851;DHT22;17567;48.382;9.102;2023-04-29T04:45:20;10.90;99.90
30851;DHT22;17567;48.382;9.102;2023-04-29T04:50:21;10.90;99.90
30851;DHT22;17567;48.382;9.102;2023-04-29T04:55:22;10.80;99.90
30851;DHT22;17567;48.382;9.102;2023-04-29T05:00:23;10.90;99.90
30851;DHT22;17567;48.382;9.102;2023-04-29T05:05:23;10.80;99.90
30851;DHT22;17567;48.382;9.102;2023-04-29T05:10:24;10.70;99.90
30851;DHT22;17567;48.382;9.102;2023-04-29T05:15:26;10.70;99.90
30851;DHT22;17567;48.382;9.102;2023-04-29T05:20:27;10.70;99.90
30851;DHT22;17567;48.382;9.102;2023-04-29T05:25:27;10.70;99.90
30851;DHT22;17567;48.382;9.102;2023-04-29T05:30:28;10.70;99.90
30851;DHT22;17567;48.382;9.102;2023-04-29T05:35:28;10.80;99.90
30851;DHT22;17567;48.382;9.102;2023-04-29T05:40:30;10.90;99.90
30851;DHT22;17567;48.382;9.102;2023-04-29T05:45:31;10.90;99.90
30851;DHT22;17567;48.382;9.102;2023-04-29T05:50:33;11.00;99.90
30851;DHT22;17567;48.382;9.102;2023-04-29T05:55:34;11.10;99.90
30851;DHT22;17567;48.382;9.102;2023-04-29T06:00:34;11.30;99.90
30851;DHT22;17567;48.382;9.102;2023-04-29T06:05:35;11.50;99.90
30851;DHT22;17567;48.382;9.102;2023-04-29T06:10:36;11.60;99.90
30851;DHT22;17567;48.382;9.102;2023-04-29T06:15:37;11.70;99.90
30851;DHT22;17567;48.382;9.102;2023-04-29T06:25:41;11.80;99.90
30851;DHT22;17567;48.382;9.102;2023-04-29T06:30:42;11.90;99.90
30851;DHT22;17567;48.382;9.102;2023-04-29T06:35:42;11.80;99.90
30851;DHT22;17567;48.382;9.102;2023-04-29T06:40:43;12.00;99.90
30851;DHT22;17567;48.382;9.102;2023-04-29T06:45:47;12.00;99.90
30851;DHT22;17567;48.382;9.102;2023-04-29T06:50:49;12.00;99.90
30851;DHT22;17567;48.382;9.102;2023-04-29T06:55:49;11.90;99.90
30851;DHT22;17567;48.382;9.102;2023-04-29T07:00:50;11.90;99.90
30851;DHT22;17567;48.382;9.102;2023-04-29T07:05:51;11.90;99.90
30851;DHT22;17567;48.382;9.102;2023-04-29T07:10:56;12.10;99.90
30851;DHT22;17567;48.382;9.102;2023-04-29T07:15:57;12.10;99.90
30851;DHT22;17567;48.382;9.102;2023-04-29T07:21:00;12.20;99.90
30851;DHT22;17567;48.382;9.102;2023-04-29T07:26:14;12.20;99.90
30851;DHT22;17567;48.382;9.102;2023-04-29T07:31:16;12.10;99.90
30851;DHT22;17567;48.382;9.102;2023-04-29T07:36:17;12.10;99.90
30851;DHT22;17567;48.382;9.102;2023-04-29T07:41:17;12.10;99.90
30851;DHT22;17567;48.382;9.102;2023-04-29T07:46:18;12.20;99.90
30851;DHT22;17567;48.382;9.102;2023-04-29T07:51:19;12.20;99.90
30851;DHT22;17567;48.382;9.102;2023-04-29T08:01:22;12.20;99.90
30851;DHT22;17567;48.382;9.102;2023-04-29T08:06:23;12.30;99.90
30851;DHT22;17567;48.382;9.102;2023-04-29T08:11:24;12.40;99.90
30851;DHT22;17567;48.382;9.102;2023-04-29T08:16:25;12.50;99.90
30851;DHT22;17567;48.382;9.102;2023-04-29T08:21:26;12.60;99.90
30851;DHT22;17567;48.382;9.102;2023-04-29T08:26:27;12.70;99.90
30851;DHT22;17567;48.382;9.102;2023-04-29T08:31:27;12.80;99.90
30851;DHT22;17567;48.382;9.102;2023-04-29T08:41:33;13.70;99.90
30851;DHT22;17567;48.382;9.102;2023-04-29T08:46:36;13.70;99.90
30851;DHT22;17567;48.382;9.102;2023-04-29T08:51:38;13.70;99.90
30851;DHT22;17567;48.382;9.102;2023-04-29T08:56:38;13.80;99.90
30851;DHT22;17567;48.382;9.102;2023-04-29T09:06:42;14.30;99.90
30851;DHT22;17567;48.382;9.102;2023-04-29T09:52:14;15.60;99.90
30851;DHT22;17567;48.382;9.102;2023-04-29T09:57:20;15.70;99.90
30851;DHT22;17567;48.382;9.102;2023-04-29T10:02:25;15.90;99.90
30851;DHT22;17567;48.382;9.102;2023-04-29T10:07:26;15.60;99.90
30851;DHT22;17567;48.382;9.102;2023-04-29T10:12:29;15.60;99.90
30851;DHT22;17567;48.382;9.102;2023-04-29T10:17:48;15.80;99.90
30851;DHT22;17567;48.382;9.102;2023-04-29T10:22:51;15.60;99.90
30851;DHT22;17567;48.382;9.102;2023-04-29T10:27:52;16.00;99.90
30851;DHT22;17567;48.382;9.102;2023-04-29T10:32:55;16.70;99.90
30851;DHT22;17567;48.382;9.102;2023-04-29T10:37:58;16.60;99.90
30851;DHT22;17567;48.382;9.102;2023-04-29T10:42:59;16.40;99.90
30851;DHT22;17567;48.382;9.102;2023-04-29T10:53:10;16.30;99.90
30851;DHT22;17567;48.382;9.102;2023-04-29T11:03:50;16.10;99.90
30851;DHT22;17567;48.382;9.102;2023-04-29T11:09:08;16.00;99.90
30851;DHT22;17567;48.382;9.102;2023-04-29T11:14:11;16.40;99.90
30851;DHT22;17567;48.382;9.102;2023-04-29T11:29:17;17.00;99.90
30851;DHT22;17567;48.382;9.102;2023-04-29T11:34:24;16.90;99.90
30851;DHT22;17567;48.382;9.102;2023-04-29T11:39:26;16.60;99.90
30851;DHT22;17567;48.382;9.102;2023-04-29T11:44:27;17.10;99.90
30851;DHT22;17567;48.382;9.102;2023-04-29T11:49:32;16.90;99.90
30851;DHT22;17567;48.382;9.102;2023-04-29T11:54:33;16.80;99.90
30851;DHT22;17567;48.382;9.102;2023-04-29T11:59:34;16.70;99.90
30851;DHT22;17567;48.382;9.102;2023-04-29T13:05:01;17.90;99.90
30851;DHT22;17567;48.382;9.102;2023-04-29T13:10:01;17.60;99.90
30851;DHT22;17567;48.382;9.102;2023-04-29T13:15:03;17.80;99.90
30851;DHT22;17567;48.382;9.102;2023-04-29T13:20:04;17.70;99.90
30851;DHT22;17567;48.382;9.102;2023-04-29T13:25:06;17.70;99.90
30851;DHT22;17567;48.382;9.102;2023-04-29T13:30:07;18.30;99.90
30851;DHT22;17567;48.382;9.102;2023-04-29T13:35:08;18.30;99.90
30851;DHT22;17567;48.382;9.102;2023-04-29T13:40:11;18.00;99.90
30851;DHT22;17567;48.382;9.102;2023-04-29T13:45:12;17.70;99.90
30851;DHT22;17567;48.382;9.102;2023-04-29T13:50:12;17.20;99.90
30851;DHT22;17567;48.382;9.102;2023-04-29T13:55:13;17.30;99.90
30851;DHT22;17567;48.382;9.102;2023-04-29T14:00:14;17.30;99.90
30851;DHT22;17567;48.382;9.102;2023-04-29T14:05:15;17.30;99.90
30851;DHT22;17567;48.382;9.102;2023-04-29T14:10:16;17.40;99.90
30851;DHT22;17567;48.382;9.102;2023-04-29T14:15:17;17.20;99.90
30851;DHT22;17567;48.382;9.102;2023-04-29T14:20:17;17.30;99.90
30851;DHT22;17567;48.382;9.102;2023-04-29T14:25:18;17.10;99.90
30851;DHT22;17567;48.382;9.102;2023-04-29T14:30:19;17.30;99.90
30851;DHT22;17567;48.382;9.102;2023-04-29T14:35:19;17.20;99.90
30851;DHT22;17567;48.382;9.102;2023-04-29T14:40:20;17.20;99.90
30851;DHT22;17567;48.382;9.102;2023-04-29T14:45:21;17.10;99.90
30851;DHT22;17567;48.382;9.102;2023-04-29T14:50:22;17.10;99.90
30851;DHT22;17567;48.382;9.102;2023-04-29T15:10:30;16.80;99.90
30851;DHT22;17567;48.382;9.102;2023-04-29T15:15:31;16.70;99.90
30851;DHT22;17567;48.382;9.102;2023-04-29T15:20:31;16.60;99.90
30851;DHT22;17567;48.382;9.102;2023-04-29T15:25:32;16.60;99.90
30851;DHT22;17567;48.382;9.102;2023-04-29T15:30:33;16.30;99.90
30851;DHT22;17567;48.382;9.102;2023-04-29T15:45:37;15.50;99.90
30851;DHT22;17567;48.382;9.102;2023-04-29T15:50:37;15.50;99.90
30851;DHT22;17567;48.382;9.102;2023-04-29T15:55:38;15.20;99.90
30851;DHT22;17567;48.382;9.102;2023-04-29T16:00:39;15.00;99.90
30851;DHT22;17567;48.382;9.102;2023-04-29T16:05:39;14.90;99.90
30851;DHT22;17567;48.382;9.102;2023-04-29T16:10:40;15.10;99.90
30851;DHT22;17567;48.382;9.102;2023-04-29T16:15:41;14.80;99.90
30851;DHT22;17567;48.382;9.102;2023-04-29T16:20:41;14.80;99.90
30851;DHT22;17567;48.382;9.102;2023-04-29T16:25:42;14.70;99.90
30851;DHT22;17567;48.382;9.102;2023-04-29T16:30:43;14.70;99.90
30851;DHT22;17567;48.382;9.102;2023-04-29T16:35:45;14.20;99.90
30851;DHT22;17567;48.382;9.102;2023-04-29T16:40:47;14.10;99.90
30851;DHT22;17567;48.382;9.102;2023-04-29T16:45:48;14.00;99.90
30851;DHT22;17567;48.382;9.102;2023-04-29T16:50:49;13.80;99.90
30851;DHT22;17567;48.382;9.102;2023-04-29T16:55:49;13.70;99.90
30851;DHT22;17567;48.382;9.102;2023-04-29T17:00:52;13.50;99.90
30851;DHT22;17567;48.382;9.102;2023-04-29T17:05:53;13.50;99.90
30851;DHT22;17567;48.382;9.102;2023-04-29T17:10:53;13.40;99.90
30851;DHT22;17567;48.382;9.102;2023-04-29T17:15:54;13.40;99.90
30851;DHT22;17567;48.382;9.102;2023-04-29T17:25:56;13.40;99.90
30851;DHT22;17567;48.382;9.102;2023-04-29T17:36:01;13.40;99.90
30851;DHT22;17567;48.382;9.102;2023-04-29T17:41:02;12.90;99.90
30851;DHT22;17567;48.382;9.102;2023-04-29T17:46:03;12.80;99.90
30851;DHT22;17567;48.382;9.102;2023-04-29T17:51:04;12.90;99.90
30851;DHT22;17567;48.382;9.102;2023-04-29T18:21:21;12.30;99.90
30851;DHT22;17567;48.382;9.102;2023-04-29T18:26:22;12.20;99.90
30851;DHT22;17567;48.382;9.102;2023-04-29T18:31:22;12.10;99.90
30851;DHT22;17567;48.382;9.102;2023-04-29T18:36:25;12.00;99.90
30851;DHT22;17567;48.382;9.102;2023-04-29T18:41:27;12.10;99.90
30851;DHT22;17567;48.382;9.102;2023-04-29T18:46:28;12.00;99.90
30851;DHT22;17567;48.382;9.102;2023-04-29T18:51:30;11.70;99.90
30851;DHT22;17567;48.382;9.102;2023-04-29T18:56:30;11.80;99.90
30851;DHT22;17567;48.382;9.102;2023-04-29T19:01:31;11.60;99.90
30851;DHT22;17567;48.382;9.102;2023-04-29T19:06:31;11.50;99.90
30851;DHT22;17567;48.382;9.102;2023-04-29T19:11:32;11.50;99.90
30851;DHT22;17567;48.382;9.102;2023-04-29T19:16:33;11.50;99.90
30851;DHT22;17567;48.382;9.102;2023-04-29T19:21:34;11.40;99.90
30851;DHT22;17567;48.382;9.102;2023-04-29T19:26:35;11.40;99.90
30851;DHT22;17567;48.382;9.102;2023-04-29T19:31:36;11.50;99.90
30851;DHT22;17567;48.382;9.102;2023-04-29T19:36:36;11.50;99.90
30851;DHT22;17567;48.382;9.102;2023-04-29T19:41:37;11.50;99.90
30851;DHT22;17567;48.382;9.102;2023-04-29T19:46:38;11.50;99.90
30851;DHT22;17567;48.382;9.102;2023-04-29T19:51:40;11.50;99.90
30851;DHT22;17567;48.382;9.102;2023-04-29T19:56:41;11.40;99.90
30851;DHT22;17567;48.382;9.102;2023-04-29T20:01:42;11.40;99.90
30851;DHT22;17567;48.382;9.102;2023-04-29T20:06:42;11.40;99.90
30851;DHT22;17567;48.382;9.102;2023-04-29T20:11:43;11.40;99.90
30851;DHT22;17567;48.382;9.102;2023-04-29T20:16:44;11.40;99.90
30851;DHT22;17567;48.382;9.102;2023-04-29T21:52:17;11.20;99.90
30851;DHT22;17567;48.382;9.102;2023-04-29T21:57:17;11.20;99.90
30851;DHT22;17567;48.382;9.102;2023-04-29T22:02:18;11.10;99.90
30851;DHT22;17567;48.382;9.102;2023-04-29T22:07:24;10.90;99.90
30851;DHT22;17567;48.382;9.102;2023-04-29T22:12:25;10.80;99.90
30851;DHT22;17567;48.382;9.102;2023-04-29T22:17:26;10.70;99.90
30851;DHT22;17567;48.382;9.102;2023-04-29T22:22:27;10.60;99.90
30851;DHT22;17567;48.382;9.102;2023-04-29T22:27:27;10.50;99.90
30851;DHT22;17567;48.382;9.102;2023-04-29T22:32:28;10.40;99.90
30851;DHT22;17567;48.382;9.102;2023-04-29T22:37:29;10.40;99.90
30851;DHT22;17567;48.382;9.102;2023-04-29T22:42:29;10.30;99.90
30851;DHT22;17567;48.382;9.102;2023-04-29T22:47:30;10.30;99.90
30851;DHT22;17567;48.382;9.102;2023-04-29T22:52:31;10.30;99.90
30851;DHT22;17567;48.382;9.102;2023-04-29T22:57:32;10.20;99.90
30851;DHT22;17567;48.382;9.102;2023-04-29T23:02:32;10.00;99.90
30851;DHT22;17567;48.382;9.102;2023-04-29T23:07:33;10.00;99.90
30851;DHT22;17567;48.382;9.102;2023-04-29T23:12:33;9.90;99.90
30851;DHT22;17567;48.382;9.102;2023-04-29T23:17:34;9.90;99.90
30851;DHT22;17567;48.382;9.102;2023-04-29T23:22:36;10.00;99.90
30851;DHT22;17567;48.382;9.102;2023-04-29T23:27:37;9.90;99.90
30851;DHT22;17567;48.382;9.102;2023-04-29T23:32:38;9.90;99.90
30851;DHT22;17567;48.382;9.102;2023-04-29T23:37:38;10.10;99.90
30851;DHT22;17567;48.382;9.102;2023-04-29T23:42:39;9.90;99.90
30851;DHT22;17567;48.382;9.102;2023-04-29T23:47:39;9.90;99.90
30851;DHT22;17567;48.382;9.102;2023-04-29T23:52:40;9.80;99.90
30851;DHT22;17567;48.382;9.102;2023-04-29T23:57:41;9.80;99.90
